Time;durP1;ratioP1;P1;durP2;ratioP2;P2;SDS_P1;SDS_P2;PMS_P1;PMS_P2;Temp;Humidity;BMP_temperature;BMP_pressure;BME280_temperature;BME280_humidity;BME280_pressure;Samples;Min_cycle;Max_cycle;Signal;HPM_P1;HPM_P2
2024/02/03 00:00:43;;;;;;;8.10;6.23;;;8.50;99.90;;;;;;4992554;28;20208;-61
2024/02/03 00:03:09;;;;;;;7.90;6.33;;;8.40;99.90;;;;;;4990749;28;20218;-62
2024/02/03 00:05:34;;;;;;;9.53;7.37;;;8.40;99.90;;;;;;4992514;28;20579;-61
2024/02/03 00:08:00;;;;;;;9.23;7.27;;;8.40;99.90;;;;;;4992561;28;20242;-62
2024/02/03 00:10:26;;;;;;;8.43;7.10;;;8.30;99.90;;;;;;4992770;28;20658;-61
2024/02/03 00:12:51;;;;;;;15.03;7.30;;;8.40;99.90;;;;;;4992501;28;20188;-61
2024/02/03 00:15:17;;;;;;;9.20;7.10;;;8.40;99.90;;;;;;4992337;28;20192;-61
2024/02/03 00:17:43;;;;;;;8.50;6.40;;;8.40;99.90;;;;;;4992802;28;20188;-62
2024/02/03 00:20:10;;;;;;;9.27;7.30;;;8.40;99.90;;;;;;4990404;28;20558;-62
2024/02/03 00:22:35;;;;;;;8.40;6.73;;;8.40;99.90;;;;;;4989112;28;20184;-60
2024/02/03 00:25:01;;;;;;;8.50;6.70;;;8.40;99.90;;;;;;4989076;28;20434;-62
2024/02/03 00:27:27;;;;;;;9.37;6.90;;;8.40;99.90;;;;;;4991891;28;20639;-61
2024/02/03 00:29:52;;;;;;;9.50;7.20;;;8.40;99.90;;;;;;4989218;28;20204;-61
2024/02/03 00:32:18;;;;;;;8.47;6.77;;;8.40;99.90;;;;;;4991439;28;20602;-62
2024/02/03 00:34:44;;;;;;;10.60;6.47;;;8.40;99.90;;;;;;4991871;28;20209;-61
2024/02/03 00:37:10;;;;;;;9.23;6.47;;;8.40;99.90;;;;;;4997241;28;20220;-61
2024/02/03 00:39:40;;;;;;;9.37;7.47;;;8.40;99.90;;;;;;4991624;28;20436;-61
2024/02/03 00:42:06;;;;;;;10.87;7.30;;;8.40;99.90;;;;;;4991232;28;20440;-62
2024/02/03 00:44:32;;;;;;;9.50;7.43;;;8.40;99.90;;;;;;4991857;28;20447;-61
2024/02/03 00:46:57;;;;;;;8.40;5.90;;;8.40;99.90;;;;;;4988215;28;20435;-61
2024/02/03 00:49:23;;;;;;;10.77;7.77;;;8.50;99.90;;;;;;4991406;28;20208;-61
2024/02/03 00:51:48;;;;;;;8.23;7.13;;;8.50;99.90;;;;;;4991481;28;20263;-61
2024/02/03 00:54:14;;;;;;;10.10;7.63;;;8.50;99.90;;;;;;4992541;28;20604;-62
2024/02/03 00:56:40;;;;;;;10.07;7.03;;;8.50;99.90;;;;;;4991424;28;20216;-61
2024/02/03 00:59:05;;;;;;;9.87;7.73;;;8.50;99.90;;;;;;4991229;28;20224;-61
2024/02/03 01:01:31;;;;;;;10.97;7.27;;;8.50;99.90;;;;;;4990897;28;20563;-61
2024/02/03 01:03:57;;;;;;;12.00;8.60;;;8.60;99.90;;;;;;4989323;28;20299;-60
2024/02/03 01:06:23;;;;;;;9.83;6.67;;;8.60;99.90;;;;;;4988183;28;20439;-58
2024/02/03 01:08:48;;;;;;;12.33;7.23;;;8.60;99.90;;;;;;4995607;28;20235;-62
2024/02/03 01:11:14;;;;;;;14.50;7.60;;;8.60;99.90;;;;;;4997183;28;20263;-63
2024/02/03 01:13:40;;;;;;;9.57;6.40;;;8.60;99.90;;;;;;4994147;28;20595;-62
2024/02/03 01:16:06;;;;;;;12.17;8.10;;;8.60;99.90;;;;;;4991221;28;20693;-63
2024/02/03 01:18:31;;;;;;;11.40;7.43;;;8.60;99.90;;;;;;4988508;28;20694;-62
2024/02/03 01:20:57;;;;;;;9.20;6.30;;;8.60;99.90;;;;;;4990774;28;20467;-61
2024/02/03 01:23:23;;;;;;;8.97;8.00;;;8.60;99.90;;;;;;4991311;28;20661;-62
2024/02/03 01:25:49;;;;;;;11.70;7.60;;;8.70;99.90;;;;;;4990911;28;20598;-63
2024/02/03 01:28:15;;;;;;;9.33;7.07;;;8.70;99.90;;;;;;4990995;28;20203;-62
2024/02/03 01:30:41;;;;;;;9.20;6.30;;;8.70;99.90;;;;;;4993880;28;20460;-61
2024/02/03 01:33:07;;;;;;;12.00;7.07;;;8.70;99.90;;;;;;4990608;28;20937;-62
2024/02/03 01:35:33;;;;;;;10.77;7.70;;;8.70;99.90;;;;;;4990839;28;20189;-62
2024/02/03 01:37:58;;;;;;;9.10;6.77;;;8.70;99.90;;;;;;5016485;22;20225;-65
2024/02/03 01:40:26;;;;;;;11.17;6.97;;;8.70;99.90;;;;;;5026530;28;20202;-66
2024/02/03 01:43:00;;;;;;;9.23;6.77;;;8.80;99.90;;;;;;5031098;28;20179;-63
2024/02/03 01:45:26;;;;;;;9.83;6.50;;;8.80;99.90;;;;;;5030567;28;20512;-64
2024/02/03 01:47:53;;;;;;;10.50;7.07;;;8.80;99.90;;;;;;5030615;28;20924;-64
2024/02/03 01:50:18;;;;;;;10.70;7.00;;;8.90;99.90;;;;;;5030091;28;20422;-66
2024/02/03 01:52:46;;;;;;;7.07;6.20;;;8.90;99.90;;;;;;5030872;28;20526;-64
2024/02/03 01:55:12;;;;;;;12.03;7.40;;;8.90;99.90;;;;;;5028444;28;20183;-64
2024/02/03 01:57:42;;;;;;;9.13;6.80;;;8.90;99.90;;;;;;5030649;28;20418;-64
2024/02/03 02:00:08;;;;;;;10.47;8.07;;;8.90;99.90;;;;;;5030409;28;20481;-64
2024/02/03 02:02:34;;;;;;;9.70;6.77;;;9.00;99.90;;;;;;5029464;28;20422;-64
2024/02/03 02:05:00;;;;;;;9.30;6.73;;;9.00;99.90;;;;;;5030495;28;20418;-64
2024/02/03 02:07:25;;;;;;;9.13;6.50;;;9.00;99.90;;;;;;5030466;28;20176;-65
2024/02/03 02:09:52;;;;;;;13.10;7.50;;;9.00;99.90;;;;;;5027698;28;20199;-63
2024/02/03 02:12:18;;;;;;;11.77;7.30;;;9.10;99.90;;;;;;5029741;28;20553;-65
2024/02/03 02:14:44;;;;;;;7.07;5.80;;;9.10;99.90;;;;;;5030672;28;20425;-66
2024/02/03 02:17:09;;;;;;;9.33;6.40;;;9.10;99.90;;;;;;5028870;28;20630;-64
2024/02/03 02:19:35;;;;;;;6.83;6.10;;;9.20;99.90;;;;;;5030059;28;20204;-65
2024/02/03 02:22:01;;;;;;;11.17;7.43;;;9.20;99.90;;;;;;5029853;28;20202;-65
2024/02/03 02:24:26;;;;;;;9.33;6.83;;;9.20;99.90;;;;;;5030054;28;20176;-64
2024/02/03 02:26:52;;;;;;;10.20;6.37;;;9.20;99.90;;;;;;5030472;28;20183;-64
2024/02/03 02:29:18;;;;;;;12.43;8.43;;;9.20;99.90;;;;;;5023377;28;20571;-65
2024/02/03 02:31:43;;;;;;;8.30;7.30;;;9.30;99.90;;;;;;5027514;28;20184;-65
2024/02/03 02:34:09;;;;;;;8.20;5.93;;;9.30;99.90;;;;;;5029936;28;20187;-66
2024/02/03 02:36:34;;;;;;;8.80;7.30;;;9.30;99.90;;;;;;5030166;28;20191;-65
2024/02/03 02:39:00;;;;;;;10.73;7.37;;;9.30;99.90;;;;;;5030204;28;20221;-65
2024/02/03 02:41:27;;;;;;;9.80;6.77;;;9.30;99.90;;;;;;5029783;28;20279;-64
2024/02/03 02:43:52;;;;;;;10.47;7.87;;;9.30;99.90;;;;;;5030375;28;20537;-65
2024/02/03 02:46:25;;;;;;;9.17;6.23;;;9.40;99.90;;;;;;5029865;28;20428;-66
2024/02/03 02:48:51;;;;;;;6.97;6.27;;;9.40;99.90;;;;;;5024761;28;20195;-65
2024/02/03 02:51:17;;;;;;;9.73;7.27;;;9.40;99.90;;;;;;5029775;28;20517;-65
2024/02/03 02:53:43;;;;;;;8.50;6.23;;;9.40;99.90;;;;;;5029957;28;20446;-64
2024/02/03 02:56:08;;;;;;;9.70;7.47;;;9.50;99.90;;;;;;5029615;28;20729;-65
2024/02/03 02:58:34;;;;;;;8.00;6.63;;;9.50;99.90;;;;;;5029875;28;20206;-65
2024/02/03 03:00:59;;;;;;;9.33;6.73;;;9.50;99.90;;;;;;5029817;28;20670;-66
2024/02/03 03:03:25;;;;;;;9.13;6.97;;;9.50;99.90;;;;;;5028040;28;20278;-66
2024/02/03 03:05:51;;;;;;;9.03;7.10;;;9.50;99.90;;;;;;5029922;28;20191;-65
2024/02/03 03:08:16;;;;;;;8.50;6.50;;;9.50;99.90;;;;;;5028543;28;20597;-64
2024/02/03 03:10:42;;;;;;;9.10;7.20;;;9.50;99.90;;;;;;5034108;28;20210;-65
2024/02/03 03:13:07;;;;;;;8.63;6.87;;;9.50;99.90;;;;;;5030022;28;20547;-63
2024/02/03 03:15:33;;;;;;;11.00;7.47;;;9.60;99.90;;;;;;5029658;28;20188;-65
2024/02/03 03:17:59;;;;;;;10.43;8.10;;;9.60;99.90;;;;;;5029893;28;20270;-66
2024/02/03 03:20:24;;;;;;;7.53;6.63;;;9.60;99.90;;;;;;5029416;28;20296;-65
2024/02/03 03:22:50;;;;;;;8.90;7.50;;;9.60;99.90;;;;;;5029808;28;20266;-66
2024/02/03 03:25:15;;;;;;;9.60;5.90;;;9.60;99.90;;;;;;5029824;28;20628;-66
2024/02/03 03:27:41;;;;;;;8.80;7.00;;;9.60;99.90;;;;;;5033226;28;20681;-66
2024/02/03 03:30:07;;;;;;;9.63;7.67;;;9.60;99.90;;;;;;5033194;28;20207;-64
2024/02/03 03:32:33;;;;;;;10.63;8.03;;;9.60;99.90;;;;;;5024424;28;20266;-66
2024/02/03 03:34:59;;;;;;;10.73;7.60;;;9.70;99.90;;;;;;5033206;28;21019;-64
2024/02/03 03:37:24;;;;;;;9.80;7.90;;;9.70;99.90;;;;;;5032845;28;20589;-66
2024/02/03 03:39:52;;;;;;;10.47;8.10;;;9.70;99.90;;;;;;5032853;28;20211;-67
2024/02/03 03:42:18;;;;;;;10.40;7.30;;;9.70;99.90;;;;;;5032735;28;20712;-66
2024/02/03 03:44:43;;;;;;;10.70;8.20;;;9.70;99.90;;;;;;5032817;28;20452;-66
2024/02/03 03:47:10;;;;;;;12.77;8.50;;;9.70;99.90;;;;;;5032909;28;20183;-61
2024/02/03 03:49:36;;;;;;;11.63;7.30;;;9.60;99.90;;;;;;5031399;28;20206;-66
2024/02/03 03:52:02;;;;;;;10.83;8.20;;;9.60;99.90;;;;;;5032909;28;20785;-66
2024/02/03 03:54:27;;;;;;;14.17;9.67;;;9.60;99.90;;;;;;5032889;28;20229;-65
2024/02/03 03:56:53;;;;;;;12.47;8.10;;;9.50;99.90;;;;;;5033329;28;20282;-65
2024/02/03 03:59:19;;;;;;;11.10;8.73;;;9.50;99.90;;;;;;5032520;28;20235;-64
2024/02/03 04:01:51;;;;;;;11.73;9.40;;;9.50;99.90;;;;;;5032519;28;20195;-65
2024/02/03 04:04:17;;;;;;;12.00;8.97;;;9.50;99.90;;;;;;5032625;28;20602;-66
2024/02/03 04:06:43;;;;;;;13.30;9.93;;;9.50;99.90;;;;;;5030814;28;20513;-66
2024/02/03 04:09:13;;;;;;;13.80;10.47;;;9.50;99.90;;;;;;5032532;28;20542;-66
2024/02/03 04:11:39;;;;;;;10.27;8.20;;;9.50;99.90;;;;;;5026699;28;20427;-66
2024/02/03 04:14:06;;;;;;;14.00;9.77;;;9.50;99.90;;;;;;5032583;28;20517;-66
2024/02/03 04:16:31;;;;;;;14.00;9.47;;;9.60;99.90;;;;;;5032314;28;20184;-66
2024/02/03 04:18:57;;;;;;;11.17;8.67;;;9.60;99.90;;;;;;5032270;28;20840;-66
2024/02/03 04:21:26;;;;;;;11.17;9.07;;;9.70;99.90;;;;;;5032225;28;20230;-66
2024/02/03 04:23:52;;;;;;;11.27;8.27;;;9.70;99.90;;;;;;5032509;28;20183;-66
2024/02/03 04:26:18;;;;;;;12.93;9.37;;;9.70;99.90;;;;;;5030066;28;21005;-65
2024/02/03 04:28:43;;;;;;;12.50;9.70;;;9.70;99.90;;;;;;5032463;28;20270;-65
2024/02/03 04:31:09;;;;;;;10.73;8.37;;;9.70;99.90;;;;;;5032127;28;20646;-65
2024/02/03 04:33:36;;;;;;;13.97;8.73;;;9.80;99.90;;;;;;5032412;28;20270;-65
2024/02/03 04:36:06;;;;;;;14.17;9.60;;;9.80;99.90;;;;;;5035491;28;20191;-63
2024/02/03 04:38:31;;;;;;;11.93;10.07;;;9.80;99.90;;;;;;5031958;28;20540;-65
2024/02/03 04:40:57;;;;;;;11.63;7.90;;;9.90;99.90;;;;;;5031899;28;20557;-66
2024/02/03 04:43:22;;;;;;;13.67;9.47;;;9.90;99.90;;;;;;5029474;28;20171;-66
2024/02/03 04:45:48;;;;;;;11.83;9.03;;;9.90;99.90;;;;;;5028907;28;20187;-64
2024/02/03 04:48:14;;;;;;;13.40;9.90;;;10.00;99.90;;;;;;5031160;28;20542;-65
2024/02/03 04:50:39;;;;;;;10.07;7.30;;;10.00;99.90;;;;;;5031940;28;20191;-66
2024/02/03 04:53:05;;;;;;;10.87;7.93;;;10.00;99.90;;;;;;5032048;28;20259;-65
2024/02/03 04:55:30;;;;;;;9.67;7.30;;;10.00;99.90;;;;;;5031368;28;20214;-64
2024/02/03 04:57:56;;;;;;;10.93;7.70;;;10.10;99.90;;;;;;5031852;28;20225;-66
2024/02/03 05:00:22;;;;;;;8.73;7.10;;;10.00;99.90;;;;;;5031325;28;20575;-66
2024/02/03 05:02:47;;;;;;;10.20;8.10;;;10.10;99.90;;;;;;5030428;28;20190;-65
2024/02/03 05:05:13;;;;;;;10.63;7.93;;;10.10;99.90;;;;;;5031748;28;20427;-64
2024/02/03 05:07:39;;;;;;;8.63;7.40;;;10.10;99.90;;;;;;5023845;28;20199;-65
2024/02/03 05:10:05;;;;;;;10.50;7.63;;;10.10;99.90;;;;;;5031749;28;20203;-64
2024/02/03 05:12:32;;;;;;;8.53;7.60;;;10.10;99.90;;;;;;5031426;28;20180;-63
2024/02/03 05:14:58;;;;;;;9.30;7.10;;;10.10;99.90;;;;;;5031966;28;20453;-65
2024/02/03 05:17:24;;;;;;;9.13;6.97;;;10.20;99.90;;;;;;5029379;28;20470;-65
2024/02/03 05:19:50;;;;;;;5.53;4.83;;;10.20;99.90;;;;;;5031368;28;20447;-66
2024/02/03 05:22:16;;;;;;;7.23;6.43;;;10.20;99.90;;;;;;5030999;28;20935;-67
2024/02/03 05:24:41;;;;;;;11.30;6.90;;;10.20;99.90;;;;;;5031225;28;20188;-65
2024/02/03 05:27:07;;;;;;;7.23;6.50;;;10.20;99.90;;;;;;5031180;28;20179;-65
2024/02/03 05:29:33;;;;;;;9.67;6.53;;;10.20;99.90;;;;;;5030935;28;20195;-65
2024/02/03 05:31:58;;;;;;;9.10;6.03;;;10.10;99.90;;;;;;5031236;28;20218;-65
2024/02/03 05:34:24;;;;;;;9.10;7.50;;;10.20;99.90;;;;;;5030314;28;20194;-65
2024/02/03 05:36:49;;;;;;;7.23;5.63;;;10.20;99.90;;;;;;5037251;28;20184;-64
2024/02/03 05:39:15;;;;;;;8.30;6.77;;;10.10;99.90;;;;;;5030908;28;20290;-64
2024/02/03 05:41:40;;;;;;;8.63;6.57;;;10.10;99.90;;;;;;5030667;28;20207;-66
2024/02/03 05:44:06;;;;;;;8.63;6.50;;;10.10;99.90;;;;;;5031003;28;20184;-66
2024/02/03 05:46:31;;;;;;;10.43;6.60;;;10.10;99.90;;;;;;5030320;28;20685;-64
2024/02/03 05:48:57;;;;;;;9.40;7.47;;;10.20;99.90;;;;;;5030606;28;20195;-65
2024/02/03 05:51:23;;;;;;;8.80;6.57;;;10.20;99.90;;;;;;5030316;28;20286;-64
2024/02/03 05:53:48;;;;;;;7.77;5.57;;;10.20;99.90;;;;;;5028691;28;20190;-64
2024/02/03 05:56:14;;;;;;;8.43;6.53;;;10.20;99.90;;;;;;5030605;28;20183;-65
2024/02/03 05:58:40;;;;;;;8.50;6.90;;;10.20;99.90;;;;;;5030323;28;20544;-63
2024/02/03 06:01:05;;;;;;;8.60;6.43;;;10.20;99.90;;;;;;5030403;28;20709;-64
2024/02/03 06:03:31;;;;;;;8.27;6.33;;;10.20;99.90;;;;;;5030249;28;20426;-65
2024/02/03 06:05:57;;;;;;;7.43;6.10;;;10.20;99.90;;;;;;5030648;28;20519;-66
2024/02/03 06:08:22;;;;;;;10.13;7.07;;;10.20;99.90;;;;;;5030345;28;20249;-66
2024/02/03 06:10:48;;;;;;;7.30;5.70;;;10.20;99.90;;;;;;5028979;28;20543;-64
2024/02/03 06:13:14;;;;;;;7.17;5.67;;;10.20;99.90;;;;;;5030753;28;20207;-66
2024/02/03 06:15:39;;;;;;;7.40;5.70;;;10.20;99.90;;;;;;5030241;28;20809;-66
2024/02/03 06:18:05;;;;;;;6.70;6.00;;;10.20;99.90;;;;;;5030827;28;20198;-66
2024/02/03 06:20:31;;;;;;;8.50;6.00;;;10.30;99.90;;;;;;5030167;28;20567;-66
2024/02/03 06:22:56;;;;;;;7.50;5.50;;;10.20;99.90;;;;;;5030634;28;20505;-65
2024/02/03 06:25:22;;;;;;;8.50;6.00;;;10.20;99.90;;;;;;5028465;28;20655;-66
2024/02/03 06:27:47;;;;;;;6.63;4.97;;;10.30;99.90;;;;;;5030536;28;20180;-66
2024/02/03 06:30:13;;;;;;;8.30;6.03;;;10.30;99.90;;;;;;5030313;28;20226;-65
2024/02/03 06:32:39;;;;;;;9.60;5.57;;;10.20;99.90;;;;;;5030088;28;20215;-64
2024/02/03 06:35:05;;;;;;;8.80;5.60;;;10.20;99.90;;;;;;5028090;28;21049;-66
2024/02/03 06:37:30;;;;;;;7.63;6.30;;;10.20;99.90;;;;;;5029675;28;20681;-64
2024/02/03 06:39:56;;;;;;;7.33;5.10;;;10.20;99.90;;;;;;5029861;28;20449;-66
2024/02/03 06:42:21;;;;;;;7.50;5.10;;;10.20;99.90;;;;;;5030182;28;20307;-67
2024/02/03 06:44:47;;;;;;;6.70;6.00;;;10.20;99.90;;;;;;5030368;28;20195;-66
2024/02/03 06:47:13;;;;;;;7.30;6.20;;;10.20;99.90;;;;;;5030300;28;20184;-66
2024/02/03 06:49:38;;;;;;;5.20;4.60;;;10.20;99.90;;;;;;5030072;28;20249;-66
2024/02/03 06:52:04;;;;;;;6.40;5.10;;;10.10;99.90;;;;;;5030453;28;20780;-68
2024/02/03 06:54:30;;;;;;;8.27;6.30;;;10.10;99.90;;;;;;5028055;28;20208;-65
2024/02/03 06:56:56;;;;;;;6.53;5.50;;;10.10;99.90;;;;;;5030195;28;20927;-66
2024/02/03 06:59:22;;;;;;;7.50;5.67;;;10.20;99.90;;;;;;5030905;28;20445;-65
2024/02/03 07:01:47;;;;;;;8.53;5.00;;;10.10;99.90;;;;;;5033884;28;20205;-65
2024/02/03 07:04:13;;;;;;;7.07;5.60;;;10.10;99.90;;;;;;5033792;28;20180;-65
2024/02/03 07:06:38;;;;;;;5.23;4.73;;;10.10;99.90;;;;;;5033595;28;20179;-67
2024/02/03 07:09:04;;;;;;;7.83;5.20;;;10.10;99.90;;;;;;5031874;28;20256;-66
2024/02/03 07:11:30;;;;;;;7.13;4.33;;;10.10;99.90;;;;;;5033678;28;20199;-66
2024/02/03 07:13:55;;;;;;;6.60;5.40;;;10.10;99.90;;;;;;5033865;28;20183;-67
2024/02/03 07:16:21;;;;;;;12.43;5.87;;;10.10;99.90;;;;;;5033984;28;20183;-66
2024/02/03 07:18:46;;;;;;;8.50;5.73;;;10.10;99.90;;;;;;5033218;28;20832;-66
2024/02/03 07:21:12;;;;;;;6.50;5.40;;;10.10;99.90;;;;;;5030686;28;20298;-66
2024/02/03 07:23:37;;;;;;;11.20;7.30;;;10.00;99.90;;;;;;5033023;28;20662;-66
2024/02/03 07:26:03;;;;;;;7.97;5.63;;;10.10;99.90;;;;;;5033534;28;20198;-66
2024/02/03 07:28:29;;;;;;;6.50;4.80;;;10.00;99.90;;;;;;5033285;28;20199;-66
2024/02/03 07:30:54;;;;;;;6.83;6.13;;;10.10;99.90;;;;;;5033349;28;20184;-66
2024/02/03 07:33:20;;;;;;;11.80;6.10;;;10.10;99.90;;;;;;5033526;28;20183;-66
2024/02/03 07:35:46;;;;;;;9.00;6.83;;;10.10;99.90;;;;;;5032409;28;20275;-61
2024/02/03 07:38:11;;;;;;;9.97;6.30;;;10.00;99.90;;;;;;5029996;28;20207;-65
2024/02/03 07:40:37;;;;;;;11.10;6.43;;;10.00;99.90;;;;;;5032157;28;20199;-65
2024/02/03 07:43:03;;;;;;;10.13;7.10;;;10.00;99.90;;;;;;5055034;22;20807;-59
2024/02/03 07:45:28;;;;;;;8.60;6.20;;;10.00;99.90;;;;;;5033687;28;20199;-59
2024/02/03 07:47:54;;;;;;;8.20;5.70;;;10.10;99.90;;;;;;5033732;28;20176;-59
2024/02/03 07:50:21;;;;;;;6.87;5.47;;;10.10;99.90;;;;;;5033518;28;20191;-59
2024/02/03 07:52:46;;;;;;;12.30;7.10;;;10.20;99.90;;;;;;5029570;28;20202;-60
2024/02/03 07:55:12;;;;;;;7.33;5.20;;;10.00;99.90;;;;;;5024800;28;20427;-60
2024/02/03 07:57:38;;;;;;;8.67;7.23;;;10.00;99.90;;;;;;5016363;28;20192;-60
2024/02/03 08:00:04;;;;;;;7.03;5.93;;;10.10;99.90;;;;;;5021357;28;20435;-60
2024/02/03 08:02:30;;;;;;;7.20;6.50;;;10.20;99.90;;;;;;5020771;28;20258;-63
2024/02/03 08:04:56;;;;;;;11.90;6.03;;;10.10;99.90;;;;;;5029236;28;20844;-56
2024/02/03 08:07:21;;;;;;;8.63;5.60;;;10.00;99.90;;;;;;5018219;28;20211;-58
2024/02/03 08:09:47;;;;;;;7.70;6.40;;;10.00;99.90;;;;;;5025263;28;20646;-59
2024/02/03 08:12:12;;;;;;;8.20;6.07;;;9.90;99.90;;;;;;5010616;28;20287;-60
2024/02/03 08:14:38;;;;;;;7.67;5.60;;;9.90;99.90;;;;;;5010418;28;20181;-59
2024/02/03 08:17:04;;;;;;;7.50;5.23;;;9.90;99.90;;;;;;5013387;28;20188;-59
2024/02/03 08:19:29;;;;;;;7.77;5.40;;;10.00;99.90;;;;;;5004892;28;20650;-60
2024/02/03 08:21:55;;;;;;;7.23;5.23;;;9.90;99.90;;;;;;5019224;28;20220;-61
2024/02/03 08:24:20;;;;;;;6.13;4.80;;;9.90;99.90;;;;;;5021602;28;20187;-59
2024/02/03 08:26:46;;;;;;;8.57;6.03;;;10.00;99.90;;;;;;5019344;28;20188;-59
2024/02/03 08:29:12;;;;;;;7.17;5.83;;;9.90;99.90;;;;;;5021147;28;20214;-60
2024/02/03 08:31:38;;;;;;;5.70;5.07;;;9.90;99.90;;;;;;5010146;28;20185;-60
2024/02/03 08:34:03;;;;;;;6.43;4.83;;;9.90;99.90;;;;;;5016585;28;20189;-63
2024/02/03 08:36:29;;;;;;;6.00;5.10;;;10.00;99.90;;;;;;5009271;28;20654;-63
2024/02/03 08:38:55;;;;;;;5.93;4.93;;;10.00;99.90;;;;;;5014151;28;20187;-60
2024/02/03 08:41:21;;;;;;;8.03;5.10;;;10.00;99.90;;;;;;5026080;28;20212;-63
2024/02/03 08:43:46;;;;;;;5.50;4.10;;;10.00;99.90;;;;;;5028333;28;20442;-58
2024/02/03 08:46:12;;;;;;;7.30;5.20;;;10.00;99.90;;;;;;5018533;28;20781;-59
2024/02/03 08:48:38;;;;;;;5.53;4.73;;;10.10;99.90;;;;;;5016340;28;20183;-60
2024/02/03 08:51:04;;;;;;;7.63;5.53;;;10.10;99.90;;;;;;5012651;28;20191;-59
2024/02/03 08:53:30;;;;;;;7.87;6.00;;;10.10;99.90;;;;;;5012440;28;20250;-60
2024/02/03 08:55:55;;;;;;;7.00;5.20;;;10.10;99.90;;;;;;5010586;28;20933;-59
2024/02/03 08:58:21;;;;;;;6.20;5.17;;;10.10;99.90;;;;;;5012461;28;20322;-59
2024/02/03 09:00:47;;;;;;;5.70;4.90;;;10.10;99.90;;;;;;5013686;28;20741;-59
2024/02/03 09:03:12;;;;;;;6.47;5.70;;;10.10;99.90;;;;;;5017881;28;20283;-60
2024/02/03 09:05:38;;;;;;;6.10;5.40;;;10.10;99.90;;;;;;5010968;28;20178;-59
2024/02/03 09:08:03;;;;;;;5.27;4.23;;;10.00;99.90;;;;;;5012075;28;20176;-60
2024/02/03 09:10:30;;;;;;;5.83;5.03;;;10.00;99.90;;;;;;5010997;28;20270;-60
2024/02/03 09:12:55;;;;;;;6.90;5.27;;;10.10;99.90;;;;;;5012848;28;20602;-60
2024/02/03 09:15:21;;;;;;;7.47;5.40;;;10.10;99.90;;;;;;5010332;28;20426;-60
2024/02/03 09:17:48;;;;;;;8.30;6.33;;;10.10;99.90;;;;;;5009986;28;20219;-61
2024/02/03 09:20:13;;;;;;;5.90;4.40;;;10.10;99.90;;;;;;5010216;28;20764;-60
2024/02/03 09:22:39;;;;;;;7.47;5.50;;;10.10;99.90;;;;;;5007428;28;20436;-60
2024/02/03 09:25:05;;;;;;;4.83;4.30;;;10.30;99.90;;;;;;5010362;28;20189;-59
2024/02/03 09:27:31;;;;;;;5.57;4.90;;;10.30;99.90;;;;;;5008953;28;20180;-60
2024/02/03 09:29:57;;;;;;;7.20;5.10;;;10.20;99.90;;;;;;5009321;28;20434;-57
2024/02/03 09:32:24;;;;;;;6.23;4.53;;;10.20;99.90;;;;;;5010017;28;20246;-60
2024/02/03 09:34:50;;;;;;;5.93;4.93;;;10.10;99.90;;;;;;5009357;28;20204;-60
2024/02/03 09:37:16;;;;;;;6.73;4.93;;;10.10;99.90;;;;;;5009987;28;20991;-60
2024/02/03 09:39:42;;;;;;;6.60;5.07;;;10.20;99.90;;;;;;5002299;28;20177;-59
2024/02/03 09:42:08;;;;;;;5.73;4.50;;;10.20;99.90;;;;;;5009654;28;20992;-59
2024/02/03 09:44:34;;;;;;;7.90;4.83;;;10.10;99.90;;;;;;5008880;28;20473;-61
2024/02/03 09:47:01;;;;;;;5.80;4.53;;;10.20;99.90;;;;;;5010274;28;20428;-60
2024/02/03 09:49:27;;;;;;;9.07;4.67;;;10.10;99.90;;;;;;5017213;28;20501;-60
2024/02/03 09:51:53;;;;;;;4.93;4.00;;;10.20;99.90;;;;;;5011265;28;20581;-60
2024/02/03 09:54:18;;;;;;;5.07;3.77;;;10.10;99.90;;;;;;5007864;28;20256;-60
2024/02/03 09:56:45;;;;;;;4.47;4.10;;;10.10;99.90;;;;;;5010592;28;20870;-59
2024/02/03 09:59:11;;;;;;;4.40;3.90;;;10.20;99.90;;;;;;5011328;28;20278;-59
2024/02/03 10:01:36;;;;;;;6.43;5.53;;;10.30;99.90;;;;;;5011104;28;20496;-59
2024/02/03 10:04:02;;;;;;;5.13;4.30;;;10.20;99.90;;;;;;5007740;28;20745;-59
2024/02/03 10:06:28;;;;;;;5.30;4.23;;;10.30;99.90;;;;;;5007871;28;20534;-59
2024/02/03 10:08:54;;;;;;;7.90;4.30;;;10.30;99.90;;;;;;5011286;28;20434;-59
2024/02/03 10:11:20;;;;;;;6.67;5.43;;;10.30;99.90;;;;;;5007767;28;20180;-58
2024/02/03 10:14:02;;;;;;;5.30;4.17;;;10.30;99.90;;;;;;5011561;28;20211;-57
2024/02/03 10:16:27;;;;;;;5.50;5.00;;;10.40;99.90;;;;;;5008390;28;21007;-61
2024/02/03 10:18:53;;;;;;;4.50;4.07;;;10.40;99.90;;;;;;4992475;28;20474;-59
2024/02/03 10:21:18;;;;;;;7.77;5.10;;;10.40;99.90;;;;;;5008186;28;20207;-59
2024/02/03 10:23:51;;;;;;;9.13;5.70;;;10.40;99.90;;;;;;5004736;28;20288;-59
2024/02/03 10:26:17;;;;;;;6.77;4.70;;;10.60;99.90;;;;;;5007393;28;20215;-59
2024/02/03 10:28:44;;;;;;;7.23;5.50;;;10.60;99.90;;;;;;5005724;28;21095;-59
2024/02/03 10:31:10;;;;;;;5.37;4.87;;;10.70;99.90;;;;;;5005268;28;20188;-58
2024/02/03 10:33:35;;;;;;;6.97;4.10;;;10.70;99.90;;;;;;5007026;28;20886;-60
2024/02/03 10:36:03;;;;;;;5.33;4.60;;;10.60;99.90;;;;;;5009852;28;20271;-60
2024/02/03 10:38:29;;;;;;;4.30;3.90;;;10.60;99.90;;;;;;5010729;28;20184;-59
2024/02/03 10:40:55;;;;;;;4.40;3.53;;;10.60;99.90;;;;;;5014739;28;20497;-60
2024/02/03 10:43:24;;;;;;;5.17;4.50;;;10.70;99.90;;;;;;5025220;28;20450;-60
2024/02/03 10:45:53;;;;;;;4.60;3.97;;;10.80;99.90;;;;;;5009109;28;20506;-60
2024/02/03 10:48:19;;;;;;;4.03;3.47;;;10.70;99.90;;;;;;5014605;28;20429;-61
2024/02/03 10:50:49;;;;;;;4.37;3.47;;;10.60;99.90;;;;;;5013714;28;20841;-64
2024/02/03 10:53:38;;;;;;;6.10;4.80;;;10.60;99.90;;;;;;5015391;28;20806;-62
2024/02/03 10:56:10;;;;;;;5.57;4.27;;;10.70;99.90;;;;;;5015036;28;20423;-62
2024/02/03 10:58:39;;;;;;;4.60;4.00;;;10.70;99.90;;;;;;5014917;28;20420;-63
2024/02/03 11:01:12;;;;;;;5.37;3.90;;;10.80;99.90;;;;;;5027369;28;20531;-63
2024/02/03 11:03:38;;;;;;;5.27;4.57;;;10.80;99.90;;;;;;5008836;28;20992;-62
2024/02/03 11:06:07;;;;;;;3.87;3.37;;;10.90;99.90;;;;;;5014934;28;20952;-63
2024/02/03 11:08:33;;;;;;;5.67;3.57;;;10.90;99.90;;;;;;5014788;28;20786;-64
2024/02/03 11:10:59;;;;;;;4.43;3.57;;;10.90;99.90;;;;;;5014895;28;20427;-62
2024/02/03 11:13:27;;;;;;;5.57;3.80;;;10.80;99.90;;;;;;5014688;28;20279;-61
2024/02/03 11:16:00;;;;;;;4.70;4.17;;;10.80;99.90;;;;;;5014485;28;20523;-64
2024/02/03 11:18:26;;;;;;;5.40;3.97;;;10.90;99.90;;;;;;5014785;28;20432;-61
2024/02/03 11:21:06;;;;;;;3.83;3.40;;;10.80;99.90;;;;;;5012264;28;20462;-59
2024/02/03 11:23:32;;;;;;;4.30;3.90;;;10.80;99.90;;;;;;5014947;28;20434;-58
2024/02/03 11:25:58;;;;;;;5.00;3.70;;;10.80;99.90;;;;;;5012584;28;20942;-61
2024/02/03 11:28:23;;;;;;;5.77;4.17;;;10.90;99.90;;;;;;5011847;28;20441;-60
2024/02/03 11:31:01;;;;;;;3.87;3.57;;;10.90;99.90;;;;;;5013662;28;20794;-60
2024/02/03 11:33:29;;;;;;;3.63;3.33;;;10.80;99.90;;;;;;5014966;28;20207;-58
2024/02/03 11:36:02;;;;;;;4.23;3.83;;;10.80;99.90;;;;;;5020610;28;21245;-59
2024/02/03 11:38:28;;;;;;;4.63;4.00;;;10.80;99.90;;;;;;5017217;28;20497;-59
2024/02/03 11:40:56;;;;;;;3.73;3.37;;;10.80;99.90;;;;;;5015704;28;20541;-60
2024/02/03 11:43:23;;;;;;;4.23;3.60;;;10.80;99.90;;;;;;5005836;28;20295;-58
2024/02/03 11:45:56;;;;;;;5.90;3.40;;;10.80;99.90;;;;;;5022727;28;20792;-58
2024/02/03 11:48:21;;;;;;;4.40;3.53;;;10.90;99.90;;;;;;5010182;28;20424;-60
2024/02/03 11:50:47;;;;;;;4.40;3.60;;;10.90;99.90;;;;;;5014499;28;20469;-60
2024/02/03 11:53:26;;;;;;;4.40;3.97;;;10.80;99.90;;;;;;5025889;28;20254;-59
2024/02/03 11:55:53;;;;;;;4.80;4.20;;;10.70;99.90;;;;;;5025816;28;20586;-57
2024/02/03 11:58:20;;;;;;;4.00;3.70;;;10.70;99.90;;;;;;5023156;28;20426;-56
2024/02/03 12:00:46;;;;;;;4.70;3.83;;;10.70;99.90;;;;;;5018889;28;20525;-59
2024/02/03 12:03:12;;;;;;;6.43;4.60;;;10.60;99.90;;;;;;5023714;28;20489;-59
2024/02/03 12:05:39;;;;;;;4.80;4.20;;;10.60;99.90;;;;;;5020636;28;20435;-59
2024/02/03 12:08:05;;;;;;;10.83;6.63;;;10.60;99.90;;;;;;5022406;28;20183;-56
2024/02/03 12:10:32;;;;;;;5.07;4.00;;;10.70;99.90;;;;;;5027719;28;20414;-59
2024/02/03 12:13:02;;;;;;;33.57;21.60;;;10.70;99.90;;;;;;5028994;28;20866;-59
2024/02/03 12:15:28;;;;;;;13.60;8.70;;;10.90;99.90;;;;;;5022537;28;20418;-59
2024/02/03 12:17:57;;;;;;;30.07;17.20;;;11.10;99.90;;;;;;5020175;28;20906;-59
2024/02/03 12:20:23;;;;;;;5.80;5.13;;;11.00;99.90;;;;;;5007666;28;20695;-59
2024/02/03 12:22:51;;;;;;;6.20;3.80;;;11.10;99.90;;;;;;5012559;28;20486;-59
2024/02/03 12:25:17;;;;;;;6.13;5.07;;;11.00;99.90;;;;;;5016808;28;20494;-59
2024/02/03 12:27:43;;;;;;;3.53;3.23;;;10.80;99.90;;;;;;5000156;28;20521;-61
2024/02/03 12:30:19;;;;;;;5.30;4.80;;;10.80;99.90;;;;;;5009510;28;20218;-58
2024/02/03 12:32:45;;;;;;;6.30;4.33;;;10.80;99.90;;;;;;5008550;28;20451;-58
2024/02/03 12:35:12;;;;;;;5.33;4.83;;;10.80;99.90;;;;;;5012867;28;20534;-60
2024/02/03 12:37:38;;;;;;;7.57;4.00;;;10.90;99.90;;;;;;5014173;28;20419;-61
2024/02/03 12:40:05;;;;;;;5.50;3.93;;;10.90;99.90;;;;;;5012380;28;20421;-58
2024/02/03 12:42:30;;;;;;;4.83;3.73;;;11.00;99.90;;;;;;5005231;28;20557;-59